Time;durP1;ratioP1;P1;durP2;ratioP2;P2;SDS_P1;SDS_P2;PMS_P1;PMS_P2;Temp;Humidity;BMP_temperature;BMP_pressure;BME280_temperature;BME280_humidity;BME280_pressure;Samples;Min_cycle;Max_cycle;Signal;HPM_P1;HPM_P2
2021/11/13 00:01:14;;;;;;;3.95;3.65;;;17.70;61.10;;;;;;5051077;28;20534;-63
2021/11/13 00:03:40;;;;;;;4.07;3.15;;;17.70;61.00;;;;;;5051684;28;20178;-61
2021/11/13 00:06:05;;;;;;;4.38;3.90;;;17.70;61.10;;;;;;5051802;28;20174;-61
2021/11/13 00:08:31;;;;;;;4.05;3.65;;;17.70;61.00;;;;;;5050713;28;20657;-62
2021/11/13 00:10:56;;;;;;;3.70;3.45;;;17.70;61.00;;;;;;5051693;28;20225;-62
2021/11/13 00:13:23;;;;;;;3.22;2.95;;;17.60;61.00;;;;;;5051464;28;20261;-63
2021/11/13 00:15:49;;;;;;;5.47;3.25;;;17.70;61.00;;;;;;5050763;28;20215;-63
2021/11/13 00:18:15;;;;;;;3.17;2.90;;;17.70;61.10;;;;;;5051573;28;20653;-63
2021/11/13 00:20:41;;;;;;;4.10;3.80;;;17.70;61.00;;;;;;5051533;28;20266;-63
2021/11/13 00:23:06;;;;;;;3.70;3.40;;;17.60;61.20;;;;;;5050915;28;20205;-64
2021/11/13 00:25:32;;;;;;;4.75;3.28;;;17.60;61.00;;;;;;5051166;28;20207;-63
2021/11/13 00:27:57;;;;;;;4.28;3.10;;;17.60;61.00;;;;;;5051480;28;20198;-63
2021/11/13 00:30:23;;;;;;;3.70;3.40;;;17.60;61.00;;;;;;5050964;28;20178;-63
2021/11/13 00:32:48;;;;;;;4.07;3.63;;;17.60;61.00;;;;;;5051371;28;20179;-63
2021/11/13 00:35:14;;;;;;;3.85;3.50;;;17.60;61.00;;;;;;5051538;28;20171;-63
2021/11/13 00:37:40;;;;;;;3.38;3.08;;;17.60;61.00;;;;;;5050456;28;20321;-61
2021/11/13 00:40:05;;;;;;;4.30;3.55;;;17.60;61.00;;;;;;5051343;28;20580;-62
2021/11/13 00:42:31;;;;;;;4.10;3.70;;;17.60;61.10;;;;;;5050758;28;20190;-62
2021/11/13 00:44:56;;;;;;;3.58;3.28;;;17.50;61.00;;;;;;5051201;28;20299;-62
2021/11/13 00:47:22;;;;;;;3.50;3.30;;;17.50;61.00;;;;;;5055091;28;20577;-62
2021/11/13 00:49:47;;;;;;;3.50;3.20;;;17.50;61.00;;;;;;5054340;28;21129;-61
2021/11/13 00:52:13;;;;;;;3.70;3.40;;;17.50;61.00;;;;;;5055492;28;20167;-63
2021/11/13 00:54:38;;;;;;;3.38;3.10;;;17.50;61.10;;;;;;5055070;28;20175;-63
2021/11/13 00:57:05;;;;;;;3.70;3.40;;;17.50;61.10;;;;;;5054173;28;20700;-65
2021/11/13 00:59:31;;;;;;;3.58;3.28;;;17.50;61.00;;;;;;5054628;28;20175;-64
2021/11/13 01:01:57;;;;;;;3.40;3.10;;;17.50;61.10;;;;;;5055006;28;20180;-62
2021/11/13 01:04:23;;;;;;;4.03;3.63;;;17.50;61.10;;;;;;5054189;28;20183;-62
2021/11/13 01:06:48;;;;;;;3.50;3.20;;;17.50;61.10;;;;;;5054548;28;21108;-61
2021/11/13 01:09:14;;;;;;;4.10;3.70;;;17.50;61.10;;;;;;5054857;28;20182;-64
2021/11/13 01:11:39;;;;;;;3.90;3.60;;;17.50;61.10;;;;;;5053712;28;20262;-62
2021/11/13 01:14:05;;;;;;;3.65;3.35;;;17.40;61.00;;;;;;5054921;28;20196;-64
2021/11/13 01:16:30;;;;;;;3.78;3.47;;;17.40;61.90;;;;;;5054412;28;20211;-62
2021/11/13 01:18:56;;;;;;;3.72;3.42;;;17.40;61.00;;;;;;5053986;28;20206;-62
2021/11/13 01:21:22;;;;;;;3.90;3.60;;;17.40;61.00;;;;;;5054802;28;20179;-63
2021/11/13 01:23:47;;;;;;;3.58;3.28;;;17.40;61.10;;;;;;5054254;28;20641;-63
2021/11/13 01:26:13;;;;;;;3.78;3.47;;;17.40;61.10;;;;;;5053749;28;20634;-64
2021/11/13 01:28:38;;;;;;;4.10;3.70;;;17.40;61.00;;;;;;5054404;28;20167;-63
2021/11/13 01:31:07;;;;;;;4.60;3.40;;;17.40;61.10;;;;;;5054227;28;20175;-64
2021/11/13 01:33:35;;;;;;;3.70;3.40;;;17.40;61.10;;;;;;5053380;28;20221;-60
2021/11/13 01:36:02;;;;;;;3.97;3.63;;;17.40;61.10;;;;;;5054323;28;20215;-62
2021/11/13 01:38:27;;;;;;;3.58;3.28;;;17.40;61.10;;;;;;5052893;28;20222;-62
2021/11/13 01:40:53;;;;;;;3.80;3.50;;;17.40;61.10;;;;;;5053103;28;20584;-61
2021/11/13 01:43:18;;;;;;;3.50;3.20;;;17.40;61.10;;;;;;5054134;28;20174;-63
2021/11/13 01:45:44;;;;;;;3.50;3.20;;;17.40;61.10;;;;;;5052532;28;20194;-62
2021/11/13 01:48:09;;;;;;;3.90;3.60;;;17.30;61.10;;;;;;5053297;28;20732;-62
2021/11/13 01:50:37;;;;;;;3.72;3.42;;;17.40;61.20;;;;;;5053593;28;20313;-62
2021/11/13 01:53:06;;;;;;;3.63;3.33;;;17.30;61.10;;;;;;5053153;28;20305;-64
2021/11/13 01:55:35;;;;;;;3.60;3.33;;;17.30;61.50;;;;;;5053576;28;20186;-63
2021/11/13 01:58:02;;;;;;;3.78;3.47;;;17.30;61.10;;;;;;5052755;28;20195;-64
2021/11/13 02:00:31;;;;;;;3.45;3.20;;;17.30;61.10;;;;;;5053214;28;20171;-62
2021/11/13 02:02:57;;;;;;;3.60;3.30;;;17.30;61.10;;;;;;5054044;28;20195;-62
2021/11/13 02:05:22;;;;;;;3.67;3.38;;;17.30;61.10;;;;;;5054113;28;20178;-62
2021/11/13 02:07:48;;;;;;;3.28;2.97;;;17.30;61.10;;;;;;5053143;28;20221;-61
2021/11/13 02:10:14;;;;;;;3.75;3.45;;;17.30;61.10;;;;;;5054346;28;20179;-63
2021/11/13 02:12:40;;;;;;;3.33;3.03;;;17.30;61.10;;;;;;5053643;28;20177;-63
2021/11/13 02:15:05;;;;;;;3.50;3.28;;;17.30;61.10;;;;;;5053353;28;20183;-63
2021/11/13 02:17:31;;;;;;;3.55;3.17;;;17.30;61.10;;;;;;5053509;28;20219;-63
2021/11/13 02:19:57;;;;;;;3.55;3.25;;;17.20;61.00;;;;;;5053455;28;20258;-63
2021/11/13 02:22:24;;;;;;;3.63;3.33;;;17.30;61.10;;;;;;5053041;28;20190;-63
2021/11/13 02:24:49;;;;;;;3.60;3.30;;;17.20;61.10;;;;;;5053464;28;20190;-62
2021/11/13 02:27:15;;;;;;;3.88;3.58;;;17.20;61.10;;;;;;5053708;28;20187;-63
2021/11/13 02:29:40;;;;;;;3.88;3.58;;;17.20;61.00;;;;;;5052535;28;20194;-61
2021/11/13 02:32:06;;;;;;;3.53;3.22;;;17.20;61.00;;;;;;5053240;28;20657;-61
2021/11/13 02:34:32;;;;;;;3.70;3.40;;;17.20;61.10;;;;;;5052959;28;20730;-62
2021/11/13 02:36:57;;;;;;;3.60;3.30;;;17.20;61.10;;;;;;5052453;28;20288;-62
2021/11/13 02:39:23;;;;;;;3.45;3.15;;;17.20;61.10;;;;;;5053317;28;20175;-63
2021/11/13 02:41:49;;;;;;;3.63;3.33;;;17.20;61.10;;;;;;5052984;28;20183;-62
2021/11/13 02:44:16;;;;;;;2.88;2.67;;;17.20;61.10;;;;;;5052654;28;20270;-62
2021/11/13 02:46:41;;;;;;;3.47;3.17;;;17.20;61.10;;;;;;5052459;28;20283;-62
2021/11/13 02:49:07;;;;;;;3.53;3.22;;;17.20;61.10;;;;;;5034882;28;20702;-62
2021/11/13 02:51:32;;;;;;;3.42;3.17;;;17.20;61.10;;;;;;5052388;28;20174;-63
2021/11/13 02:53:58;;;;;;;3.30;3.10;;;17.20;61.10;;;;;;5053125;28;20530;-63
2021/11/13 02:56:23;;;;;;;3.60;3.30;;;17.20;61.10;;;;;;5052218;28;20540;-63
2021/11/13 02:58:49;;;;;;;3.35;3.05;;;17.20;61.10;;;;;;5052443;28;20171;-62
2021/11/13 03:01:17;;;;;;;3.47;3.17;;;17.20;61.10;;;;;;5052814;28;20692;-62
2021/11/13 03:03:42;;;;;;;3.17;2.88;;;17.20;61.30;;;;;;5051894;28;20175;-62
2021/11/13 03:06:12;;;;;;;3.50;3.20;;;17.10;61.10;;;;;;5052700;28;20178;-61
2021/11/13 03:08:38;;;;;;;3.67;3.45;;;17.10;61.10;;;;;;5052612;28;20178;-61
2021/11/13 03:11:06;;;;;;;3.25;3.03;;;17.10;61.10;;;;;;5052168;28;20180;-62
2021/11/13 03:13:32;;;;;;;3.13;2.92;;;17.10;61.10;;;;;;5052298;28;20697;-62
2021/11/13 03:15:58;;;;;;;3.30;3.00;;;17.10;61.10;;;;;;5052549;28;20298;-62
2021/11/13 03:18:26;;;;;;;3.50;3.20;;;17.10;61.10;;;;;;5051839;28;20168;-63
2021/11/13 03:20:52;;;;;;;3.47;3.17;;;17.10;61.20;;;;;;5052198;28;20603;-62
2021/11/13 03:23:18;;;;;;;3.50;3.20;;;17.10;61.20;;;;;;5052729;28;20175;-64
2021/11/13 03:25:53;;;;;;;3.38;3.13;;;17.10;61.20;;;;;;5051466;28;20203;-62
2021/11/13 03:28:18;;;;;;;3.53;3.22;;;17.10;61.20;;;;;;5052445;28;20285;-62
2021/11/13 03:30:44;;;;;;;3.50;3.20;;;17.10;61.20;;;;;;5050802;28;20274;-62
2021/11/13 03:33:09;;;;;;;3.20;2.90;;;17.10;61.10;;;;;;5051891;28;20201;-61
2021/11/13 03:35:35;;;;;;;2.80;2.60;;;17.10;61.20;;;;;;5052104;28;20167;-61
2021/11/13 03:38:05;;;;;;;3.00;2.80;;;17.10;61.20;;;;;;5052399;28;20552;-62
2021/11/13 03:40:30;;;;;;;3.30;3.00;;;17.10;61.20;;;;;;5051192;28;20210;-62
2021/11/13 03:42:56;;;;;;;3.35;3.05;;;17.10;61.20;;;;;;5052209;28;20171;-63
2021/11/13 03:45:21;;;;;;;3.50;3.20;;;17.00;61.20;;;;;;5052013;28;20175;-63
2021/11/13 03:47:47;;;;;;;3.20;2.90;;;17.10;61.20;;;;;;5050736;28;20231;-62
2021/11/13 03:50:12;;;;;;;2.92;2.72;;;17.10;61.30;;;;;;5051982;28;20167;-62
2021/11/13 03:52:41;;;;;;;2.95;2.75;;;17.00;61.20;;;;;;5051147;28;20539;-63
2021/11/13 03:55:07;;;;;;;2.92;2.67;;;17.00;61.20;;;;;;5051836;28;20611;-64
2021/11/13 03:57:32;;;;;;;3.13;2.92;;;17.00;61.20;;;;;;5051497;28;20301;-63
2021/11/13 03:59:58;;;;;;;3.33;3.03;;;17.00;61.20;;;;;;5050998;28;20167;-62
2021/11/13 04:02:23;;;;;;;2.75;2.38;;;17.00;61.30;;;;;;5051621;28;20556;-63
2021/11/13 04:04:49;;;;;;;2.85;2.65;;;17.00;61.30;;;;;;5051489;28;20575;-62
2021/11/13 04:07:14;;;;;;;3.38;3.08;;;17.00;61.30;;;;;;5051338;28;20189;-63
2021/11/13 04:09:40;;;;;;;3.25;3.05;;;17.00;61.30;;;;;;5051953;28;20175;-63
2021/11/13 04:12:06;;;;;;;3.10;2.90;;;17.00;61.30;;;;;;5052012;28;20179;-63
2021/11/13 04:14:35;;;;;;;3.60;3.28;;;17.00;61.30;;;;;;5050629;28;20229;-64
2021/11/13 04:17:03;;;;;;;3.35;3.13;;;17.00;61.30;;;;;;5051519;28;20272;-63
2021/11/13 04:19:28;;;;;;;3.03;2.80;;;17.00;61.30;;;;;;5051875;28;20187;-63
2021/11/13 04:21:54;;;;;;;3.28;3.08;;;17.00;61.30;;;;;;5054383;28;20711;-62
2021/11/13 04:24:20;;;;;;;3.22;2.85;;;17.00;61.30;;;;;;5055713;28;20205;-63
2021/11/13 04:26:45;;;;;;;2.80;2.60;;;17.00;61.30;;;;;;5055526;28;20646;-63
2021/11/13 04:29:11;;;;;;;3.17;2.83;;;17.00;61.40;;;;;;5055065;28;20175;-63
2021/11/13 04:31:36;;;;;;;3.38;3.08;;;17.00;61.40;;;;;;5055230;28;20523;-62
2021/11/13 04:34:03;;;;;;;2.97;2.78;;;16.90;61.30;;;;;;5055535;28;20498;-63
2021/11/13 04:36:34;;;;;;;3.17;2.97;;;16.90;61.30;;;;;;5054729;28;20665;-62
2021/11/13 04:38:59;;;;;;;3.33;3.13;;;17.00;61.40;;;;;;5055869;28;20202;-63
2021/11/13 04:41:25;;;;;;;2.95;2.72;;;16.90;61.30;;;;;;5055731;28;20600;-62
2021/11/13 04:43:50;;;;;;;3.55;3.03;;;16.90;61.40;;;;;;5054593;28;20648;-61
2021/11/13 04:46:16;;;;;;;3.10;2.90;;;16.90;61.30;;;;;;5055161;28;20980;-60
2021/11/13 04:48:41;;;;;;;3.67;3.40;;;16.90;61.30;;;;;;5055081;28;20178;-62
2021/11/13 04:51:07;;;;;;;3.20;3.00;;;16.90;61.40;;;;;;5055132;28;20179;-62
2021/11/13 04:53:32;;;;;;;2.80;2.58;;;16.90;61.40;;;;;;5055061;28;20260;-62
2021/11/13 04:55:58;;;;;;;2.83;2.63;;;16.90;61.40;;;;;;5054463;28;20337;-63
2021/11/13 04:58:23;;;;;;;3.53;3.22;;;16.90;61.40;;;;;;5055088;28;20175;-63
2021/11/13 05:00:49;;;;;;;3.55;3.25;;;16.90;61.40;;;;;;5054554;28;20178;-62
2021/11/13 05:03:14;;;;;;;3.17;2.88;;;16.90;61.40;;;;;;5054455;28;20179;-64
2021/11/13 05:05:40;;;;;;;2.88;2.63;;;16.90;61.50;;;;;;5054942;28;20552;-61
2021/11/13 05:08:05;;;;;;;3.50;3.20;;;16.90;61.40;;;;;;5055474;28;20179;-62
2021/11/13 05:10:31;;;;;;;3.17;2.88;;;16.90;61.50;;;;;;5054160;28;20206;-62
2021/11/13 05:12:56;;;;;;;2.72;2.53;;;16.90;61.50;;;;;;5054983;28;20171;-64
2021/11/13 05:15:22;;;;;;;3.20;2.90;;;16.90;61.50;;;;;;5054631;28;20175;-63
2021/11/13 05:17:48;;;;;;;3.28;2.97;;;16.90;61.50;;;;;;5053687;28;20667;-63
2021/11/13 05:20:14;;;;;;;3.30;3.00;;;16.90;61.50;;;;;;5054801;28;20627;-63
2021/11/13 05:22:40;;;;;;;3.08;2.88;;;16.90;61.50;;;;;;5054519;28;20189;-62
2021/11/13 05:25:07;;;;;;;3.38;3.05;;;16.90;61.50;;;;;;5053717;28;20644;-64
2021/11/13 05:27:33;;;;;;;3.00;2.80;;;16.80;61.40;;;;;;5054062;28;20613;-63
2021/11/13 05:29:58;;;;;;;3.03;2.80;;;16.80;61.40;;;;;;5054534;28;20183;-63
2021/11/13 05:32:24;;;;;;;2.80;2.60;;;16.80;61.50;;;;;;5053367;28;20573;-62
2021/11/13 05:34:49;;;;;;;2.78;2.58;;;16.80;61.50;;;;;;5054233;28;20171;-61
2021/11/13 05:37:15;;;;;;;2.92;2.72;;;16.80;61.60;;;;;;5054168;28;20211;-63
2021/11/13 05:39:40;;;;;;;2.65;2.45;;;16.90;61.60;;;;;;5053321;28;20183;-61
2021/11/13 05:42:06;;;;;;;2.67;2.47;;;16.80;61.50;;;;;;5054200;28;20513;-62
2021/11/13 05:44:32;;;;;;;2.90;2.70;;;16.80;61.50;;;;;;5053844;28;20179;-61
2021/11/13 05:46:57;;;;;;;2.80;2.60;;;16.80;61.60;;;;;;5053493;28;20238;-61
2021/11/13 05:49:23;;;;;;;3.17;2.92;;;16.80;61.60;;;;;;5054171;28;20258;-61
2021/11/13 05:51:49;;;;;;;2.88;2.67;;;16.80;61.60;;;;;;5054126;28;20179;-61
2021/11/13 05:54:14;;;;;;;2.92;2.72;;;16.80;61.60;;;;;;5053549;28;20233;-62
2021/11/13 05:56:40;;;;;;;2.88;2.67;;;16.80;61.60;;;;;;5053536;28;20199;-63
2021/11/13 05:59:05;;;;;;;2.40;2.20;;;16.80;61.60;;;;;;5053153;28;20209;-63
2021/11/13 06:01:31;;;;;;;3.10;2.90;;;16.80;61.60;;;;;;5053784;28;20174;-62
2021/11/13 06:03:57;;;;;;;2.95;2.75;;;16.80;61.70;;;;;;5053981;28;20618;-61
2021/11/13 06:06:22;;;;;;;2.80;2.55;;;16.80;61.70;;;;;;5053560;28;20182;-61
2021/11/13 06:08:48;;;;;;;2.72;2.53;;;16.80;61.60;;;;;;5054047;28;21088;-61
2021/11/13 06:11:13;;;;;;;2.80;2.60;;;16.80;61.60;;;;;;5053984;28;20526;-63
2021/11/13 06:13:39;;;;;;;2.88;2.67;;;16.70;61.60;;;;;;5052773;28;20205;-62
2021/11/13 06:16:06;;;;;;;2.55;2.40;;;16.80;61.60;;;;;;5053888;28;20297;-61
2021/11/13 06:18:32;;;;;;;2.75;2.55;;;16.70;61.60;;;;;;5053538;28;20179;-62
2021/11/13 06:20:58;;;;;;;2.83;2.63;;;16.70;61.60;;;;;;5053256;28;20178;-61
2021/11/13 06:23:23;;;;;;;2.80;2.60;;;16.70;61.60;;;;;;5053909;28;20220;-62
2021/11/13 06:25:49;;;;;;;2.85;2.63;;;16.70;61.60;;;;;;5053345;28;20203;-62
2021/11/13 06:28:14;;;;;;;2.78;2.58;;;16.70;61.60;;;;;;5052787;28;20210;-62
2021/11/13 06:30:40;;;;;;;3.20;2.90;;;16.70;61.60;;;;;;5053274;28;20261;-61
2021/11/13 06:33:05;;;;;;;2.60;2.40;;;16.70;61.60;;;;;;5053565;28;20171;-61
2021/11/13 06:35:31;;;;;;;2.72;2.53;;;16.70;61.60;;;;;;5052489;28;20734;-60
2021/11/13 06:37:57;;;;;;;2.90;2.70;;;16.70;61.70;;;;;;5053253;28;20673;-61
2021/11/13 06:40:22;;;;;;;2.80;2.60;;;17.40;62.10;;;;;;5053402;28;20300;-61
2021/11/13 06:42:48;;;;;;;2.35;2.25;;;16.70;61.70;;;;;;5051738;28;20590;-61
2021/11/13 06:45:13;;;;;;;2.80;2.60;;;16.70;61.70;;;;;;5053184;28;20194;-61
2021/11/13 06:47:39;;;;;;;2.20;2.10;;;16.70;61.70;;;;;;5052601;28;20704;-61
2021/11/13 06:50:06;;;;;;;2.75;2.55;;;16.70;61.70;;;;;;5052491;28;20253;-60
2021/11/13 06:52:31;;;;;;;2.85;2.65;;;16.70;61.70;;;;;;5052918;28;20194;-62
2021/11/13 06:54:57;;;;;;;2.78;2.58;;;16.70;61.70;;;;;;5053080;28;20179;-62
2021/11/13 06:57:22;;;;;;;2.50;2.30;;;16.70;61.80;;;;;;5052086;28;20206;-62
2021/11/13 06:59:48;;;;;;;2.65;2.45;;;16.70;61.70;;;;;;5052537;28;20595;-62
2021/11/13 07:02:15;;;;;;;2.40;2.30;;;16.70;61.70;;;;;;5052800;28;20202;-61
2021/11/13 07:04:41;;;;;;;2.60;2.40;;;16.70;61.80;;;;;;5052084;28;20171;-61
2021/11/13 07:07:06;;;;;;;2.85;2.65;;;16.70;61.80;;;;;;5053064;28;20185;-61
2021/11/13 07:09:32;;;;;;;2.67;2.47;;;16.70;61.80;;;;;;5051793;28;20184;-60
2021/11/13 07:11:57;;;;;;;2.65;2.40;;;16.60;61.70;;;;;;5052597;28;20238;-62
2021/11/13 07:14:23;;;;;;;2.40;2.20;;;16.70;61.80;;;;;;5052435;28;20174;-62
2021/11/13 07:16:48;;;;;;;2.60;2.40;;;16.70;61.80;;;;;;5051607;28;20582;-62
2021/11/13 07:19:14;;;;;;;2.45;2.25;;;16.70;61.80;;;;;;5052628;28;20630;-62
2021/11/13 07:21:39;;;;;;;2.40;2.20;;;16.60;61.70;;;;;;5051895;28;20671;-62
2021/11/13 07:24:06;;;;;;;2.33;2.22;;;16.60;61.80;;;;;;5051655;28;20633;-64
2021/11/13 07:26:31;;;;;;;2.47;2.38;;;16.60;61.70;;;;;;5050681;28;20268;-63
2021/11/13 07:29:03;;;;;;;2.25;2.15;;;16.60;61.80;;;;;;5052405;28;20263;-63
2021/11/13 07:31:28;;;;;;;2.08;1.98;;;16.70;61.80;;;;;;5051522;28;20202;-63
2021/11/13 07:33:57;;;;;;;2.05;1.95;;;16.70;61.80;;;;;;5052366;28;20634;-62
2021/11/13 07:36:23;;;;;;;2.88;2.63;;;16.70;61.80;;;;;;5051997;28;20674;-63
2021/11/13 07:38:48;;;;;;;2.40;2.25;;;16.70;61.90;;;;;;5051264;28;20274;-63
2021/11/13 07:41:14;;;;;;;2.63;2.42;;;16.90;62.10;;;;;;5051863;28;20229;-62
2021/11/13 07:43:40;;;;;;;2.33;2.22;;;17.00;61.70;;;;;;5051915;28;20179;-61
2021/11/13 07:46:05;;;;;;;2.15;2.00;;;17.20;61.60;;;;;;5051201;28;20171;-61
2021/11/13 07:48:31;;;;;;;2.10;2.00;;;17.40;61.30;;;;;;5051853;28;20194;-61
2021/11/13 07:50:57;;;;;;;2.17;2.03;;;17.50;60.80;;;;;;5052039;28;20253;-61
2021/11/13 07:53:22;;;;;;;1.85;1.75;;;17.60;60.40;;;;;;5051177;28;20535;-63
2021/11/13 07:55:48;;;;;;;2.00;1.80;;;17.80;60.20;;;;;;5050446;28;20268;-62
2021/11/13 07:58:15;;;;;;;1.75;1.65;;;17.80;59.90;;;;;;5051715;28;20179;-62
2021/11/13 08:00:41;;;;;;;1.80;1.70;;;17.90;59.80;;;;;;5051042;28;20261;-61
2021/11/13 08:03:07;;;;;;;2.03;1.92;;;18.00;59.70;;;;;;5051933;28;20183;-68
2021/11/13 08:05:32;;;;;;;2.00;1.90;;;18.10;59.50;;;;;;5051379;28;20175;-68
2021/11/13 08:07:58;;;;;;;1.85;1.75;;;18.20;59.40;;;;;;5050812;28;20618;-68
2021/11/13 08:10:23;;;;;;;2.10;1.90;;;18.30;59.30;;;;;;5051419;28;20172;-62
2021/11/13 08:12:49;;;;;;;1.88;1.77;;;18.40;59.70;;;;;;5050441;28;20331;-63
2021/11/13 08:15:15;;;;;;;2.05;1.70;;;18.40;59.20;;;;;;5051726;28;20217;-63
2021/11/13 08:17:41;;;;;;;3.38;1.88;;;18.50;59.20;;;;;;5051320;28;20210;-63
2021/11/13 08:20:08;;;;;;;2.33;2.00;;;18.60;59.20;;;;;;5051006;28;20588;-64
2021/11/13 08:22:36;;;;;;;3.88;2.55;;;18.60;59.20;;;;;;5051331;28;20202;-64
2021/11/13 08:25:03;;;;;;;2.67;2.13;;;18.60;59.20;;;;;;5051468;28;20207;-63
2021/11/13 08:27:29;;;;;;;2.30;2.00;;;18.60;59.20;;;;;;5050502;28;20526;-62
2021/11/13 08:29:54;;;;;;;2.63;1.95;;;18.70;59.20;;;;;;5051556;28;20177;-63
2021/11/13 08:32:20;;;;;;;3.03;2.10;;;18.70;59.20;;;;;;5051470;28;20175;-63
2021/11/13 08:34:45;;;;;;;2.42;2.15;;;18.70;59.20;;;;;;5050301;28;20183;-64
2021/11/13 08:37:11;;;;;;;2.40;2.00;;;18.70;59.20;;;;;;5051216;28;20218;-64
2021/11/13 08:39:39;;;;;;;3.00;2.22;;;18.70;59.20;;;;;;5050934;28;20522;-64
2021/11/13 08:42:09;;;;;;;2.10;1.90;;;18.80;59.20;;;;;;5050758;28;20195;-63
2021/11/13 08:44:36;;;;;;;2.90;2.08;;;18.70;59.20;;;;;;5051281;28;20272;-64
2021/11/13 08:47:03;;;;;;;2.33;2.00;;;18.70;59.20;;;;;;5051177;28;20260;-64
2021/11/13 08:49:29;;;;;;;2.72;2.28;;;18.60;59.40;;;;;;5050241;28;20175;-63
2021/11/13 08:51:54;;;;;;;2.80;2.30;;;18.60;59.60;;;;;;5050986;28;20182;-64
2021/11/13 08:54:20;;;;;;;3.58;2.25;;;18.50;59.80;;;;;;5051294;28;20175;-64
2021/11/13 08:56:45;;;;;;;2.72;2.05;;;18.40;59.80;;;;;;5050231;28;20215;-64
2021/11/13 08:59:11;;;;;;;2.40;1.88;;;18.30;60.10;;;;;;5051289;28;20571;-64
2021/11/13 09:01:36;;;;;;;2.30;2.10;;;18.20;60.20;;;;;;5050822;28;20611;-64
2021/11/13 09:04:02;;;;;;;2.20;2.00;;;18.20;60.50;;;;;;5050317;28;20182;-64
2021/11/13 09:06:30;;;;;;;2.40;2.08;;;18.10;60.60;;;;;;5052291;28;20183;-70
2021/11/13 09:08:58;;;;;;;2.17;1.92;;;18.10;60.80;;;;;;5054970;28;20175;-70
2021/11/13 09:11:24;;;;;;;2.17;1.85;;;18.10;61.00;;;;;;5054717;28;20605;-67
2021/11/13 09:13:50;;;;;;;2.13;1.92;;;18.10;60.90;;;;;;5053978;28;20207;-67
2021/11/13 09:16:15;;;;;;;3.92;1.92;;;18.10;60.80;;;;;;5059843;28;20241;-67
2021/11/13 09:18:42;;;;;;;2.72;2.00;;;18.20;61.50;;;;;;5068240;28;20175;-67
2021/11/13 09:21:08;;;;;;;2.10;1.75;;;18.10;60.50;;;;;;5054773;28;20604;-68
2021/11/13 09:23:33;;;;;;;2.78;1.85;;;18.10;60.60;;;;;;5064592;28;20677;-71
2021/11/13 09:25:59;;;;;;;2.05;1.92;;;18.10;61.00;;;;;;5074722;28;20171;-62
2021/11/13 09:28:24;;;;;;;2.83;1.85;;;18.00;60.70;;;;;;5074750;28;20277;-65
2021/11/13 09:30:50;;;;;;;2.88;1.90;;;17.90;61.00;;;;;;5072943;28;20601;-68
2021/11/13 09:33:16;;;;;;;6.20;2.28;;;17.90;61.30;;;;;;5060348;28;20194;-68
2021/11/13 09:35:42;;;;;;;4.55;2.08;;;17.90;61.50;;;;;;5062692;28;20245;-68
2021/11/13 09:38:08;;;;;;;2.85;2.22;;;18.00;61.60;;;;;;5066143;28;20213;-68
2021/11/13 09:40:34;;;;;;;4.47;2.10;;;18.00;61.40;;;;;;5062578;28;20345;-69
2021/11/13 09:43:01;;;;;;;2.53;2.08;;;18.00;61.40;;;;;;5064027;28;20277;-67
2021/11/13 09:45:26;;;;;;;2.13;1.83;;;18.00;61.40;;;;;;5063712;28;20187;-65
2021/11/13 09:47:53;;;;;;;3.33;2.08;;;18.00;61.40;;;;;;5073505;28;20226;-66
2021/11/13 09:50:19;;;;;;;3.25;2.05;;;18.00;61.50;;;;;;5053934;28;20178;-67
2021/11/13 09:52:45;;;;;;;2.30;1.85;;;18.00;61.60;;;;;;5052969;28;20175;-68
2021/11/13 09:55:11;;;;;;;3.58;2.13;;;18.00;61.60;;;;;;5053802;28;20175;-67
2021/11/13 09:57:38;;;;;;;2.63;2.03;;;18.00;61.90;;;;;;5053567;28;20218;-67
2021/11/13 10:00:25;;;;;;;1.73;1.63;;;17.90;61.90;;;;;;5053137;28;20661;-69
2021/11/13 10:02:51;;;;;;;2.00;1.80;;;17.90;62.10;;;;;;5053439;28;20182;-68
2021/11/13 10:05:16;;;;;;;2.08;1.90;;;17.90;62.30;;;;;;5053224;28;20668;-68
2021/11/13 10:07:44;;;;;;;2.88;2.20;;;17.90;62.30;;;;;;5053245;28;20186;-68
2021/11/13 10:10:15;;;;;;;2.33;2.13;;;17.90;62.30;;;;;;5053614;28;20604;-63
2021/11/13 10:12:42;;;;;;;3.38;2.33;;;17.80;62.20;;;;;;5052813;28;20258;-63
2021/11/13 10:15:31;;;;;;;2.45;2.20;;;17.80;62.10;;;;;;5053851;28;20179;-63
2021/11/13 10:18:15;;;;;;;3.40;1.83;;;17.80;62.20;;;;;;5052409;28;20223;-65
2021/11/13 10:20:47;;;;;;;3.15;1.98;;;17.70;62.50;;;;;;5052744;28;20182;-69
2021/11/13 10:23:24;;;;;;;6.10;1.88;;;17.70;62.50;;;;;;5063667;28;20251;-67
2021/11/13 10:26:05;;;;;;;3.33;2.00;;;17.60;62.50;;;;;;5073129;28;20320;-66
2021/11/13 10:28:31;;;;;;;1.83;1.73;;;17.70;62.80;;;;;;5072486;28;20220;-68
2021/11/13 10:31:08;;;;;;;3.30;2.00;;;17.60;62.80;;;;;;5073502;28;20269;-67
2021/11/13 10:33:34;;;;;;;3.55;1.98;;;17.70;62.70;;;;;;5072273;28;20659;-69
2021/11/13 10:35:59;;;;;;;2.67;1.95;;;17.70;62.80;;;;;;5072902;28;20174;-68
2021/11/13 10:38:25;;;;;;;6.80;2.08;;;17.60;62.60;;;;;;5072951;28;20178;-69
2021/11/13 10:40:52;;;;;;;5.10;2.58;;;17.70;62.60;;;;;;5071970;28;20170;-69
2021/11/13 10:43:18;;;;;;;3.63;2.15;;;17.70;62.50;;;;;;5072710;28;20166;-67
2021/11/13 10:46:10;;;;;;;4.80;2.33;;;17.70;62.40;;;;;;5072585;28;20570;-67
2021/11/13 10:48:38;;;;;;;2.42;2.20;;;17.70;62.40;;;;;;5071876;28;20240;-66
2021/11/13 10:51:05;;;;;;;2.63;2.40;;;17.70;62.40;;;;;;5073041;28;20174;-66
2021/11/13 10:53:31;;;;;;;4.00;2.00;;;17.70;62.40;;;;;;5072640;28;20261;-68
2021/11/13 10:56:17;;;;;;;2.90;2.17;;;17.70;62.40;;;;;;5072270;28;20226;-68
2021/11/13 10:58:55;;;;;;;2.42;2.00;;;17.70;62.40;;;;;;5072727;28;20182;-69
2021/11/13 11:01:23;;;;;;;2.60;2.20;;;17.70;62.40;;;;;;5072983;28;20218;-68
2021/11/13 11:03:49;;;;;;;2.50;2.30;;;17.70;62.40;;;;;;5071815;28;20260;-68
2021/11/13 11:06:23;;;;;;;2.33;2.10;;;17.70;62.40;;;;;;5072561;28;20179;-67
2021/11/13 11:08:49;;;;;;;2.33;1.90;;;17.60;62.30;;;;;;5071854;28;20188;-70
2021/11/13 11:11:28;;;;;;;4.13;2.17;;;17.70;62.50;;;;;;5073513;28;20171;-70
2021/11/13 11:13:54;;;;;;;4.22;2.40;;;17.60;62.40;;;;;;5072789;28;20178;-67
2021/11/13 11:16:38;;;;;;;3.45;2.17;;;17.70;63.00;;;;;;5071987;28;20202;-68
2021/11/13 11:19:06;;;;;;;2.50;2.30;;;17.70;62.70;;;;;;5072545;28;20244;-68
2021/11/13 11:21:58;;;;;;;1.90;1.80;;;17.70;62.80;;;;;;5072083;28;20249;-68
2021/11/13 11:24:38;;;;;;;3.67;2.20;;;17.70;62.90;;;;;;5051781;28;20505;-67
2021/11/13 11:27:21;;;;;;;3.58;2.10;;;17.70;62.90;;;;;;5052399;28;20186;-68
2021/11/13 11:29:50;;;;;;;3.17;2.10;;;17.70;62.90;;;;;;5050829;28;20202;-67
2021/11/13 11:32:18;;;;;;;5.45;2.05;;;17.70;63.00;;;;;;5051762;28;20270;-67
2021/11/13 11:34:44;;;;;;;2.95;1.98;;;17.70;63.00;;;;;;5051958;28;20168;-67
2021/11/13 11:37:17;;;;;;;4.63;2.10;;;17.70;62.90;;;;;;5051382;28;20214;-66
2021/11/13 11:39:47;;;;;;;3.75;2.00;;;17.70;63.10;;;;;;5051939;28;20258;-70
2021/11/13 11:42:13;;;;;;;3.25;1.95;;;17.70;63.00;;;;;;5051929;28;20541;-68
2021/11/13 11:44:39;;;;;;;3.67;2.05;;;17.70;63.10;;;;;;5050626;28;20182;-67
2021/11/13 11:47:10;;;;;;;5.35;2.35;;;17.60;63.10;;;;;;5051679;28;20219;-69
2021/11/13 11:49:37;;;;;;;4.00;2.25;;;17.60;63.10;;;;;;5051555;28;20621;-67
2021/11/13 11:52:03;;;;;;;3.45;2.22;;;17.60;63.00;;;;;;5049902;28;20183;-67
2021/11/13 11:54:29;;;;;;;1.90;1.70;;;17.50;63.00;;;;;;5051178;28;20217;-70
2021/11/13 11:56:55;;;;;;;2.97;2.08;;;17.50;63.10;;;;;;5050526;28;20635;-69
2021/11/13 11:59:23;;;;;;;4.20;2.58;;;17.50;63.20;;;;;;5050925;28;20175;-70
2021/11/13 12:01:49;;;;;;;3.05;2.05;;;17.50;63.10;;;;;;5050366;28;20588;-68
2021/11/13 12:04:19;;;;;;;2.90;2.30;;;17.50;63.10;;;;;;5051833;28;20190;-68
2021/11/13 12:06:54;;;;;;;3.25;1.88;;;17.50;63.10;;;;;;5051003;28;20183;-69
2021/11/13 12:09:21;;;;;;;2.97;2.40;;;17.50;63.10;;;;;;5051777;28;20237;-67
2021/11/13 12:11:48;;;;;;;2.17;1.70;;;17.60;63.10;;;;;;5051074;28;20179;-70
2021/11/13 12:14:34;;;;;;;2.20;2.00;;;17.50;63.10;;;;;;5051213;28;20175;-67
2021/11/13 12:17:27;;;;;;;3.45;2.13;;;17.50;63.10;;;;;;5051473;28;20611;-68
2021/11/13 12:20:04;;;;;;;6.22;2.08;;;17.50;63.20;;;;;;5044588;28;20549;-63
2021/11/13 12:22:42;;;;;;;3.38;2.05;;;17.50;63.20;;;;;;5055478;28;20174;-67
2021/11/13 12:25:18;;;;;;;3.58;2.20;;;17.50;63.30;;;;;;5071726;28;20174;-68
2021/11/13 12:28:03;;;;;;;2.63;2.35;;;17.50;63.30;;;;;;5070717;28;20186;-66
2021/11/13 12:31:08;;;;;;;2.33;2.05;;;17.50;63.20;;;;;;5070234;28;20261;-68
2021/11/13 12:33:34;;;;;;;4.57;2.45;;;17.50;63.20;;;;;;5060084;28;20632;-69
2021/11/13 12:36:17;;;;;;;3.88;2.00;;;17.60;63.20;;;;;;5071250;28;20261;-72
2021/11/13 12:38:56;;;;;;;3.70;1.90;;;17.60;63.00;;;;;;5071030;28;20644;-71
2021/11/13 12:41:42;;;;;;;2.20;1.70;;;17.70;63.00;;;;;;5071413;28;20270;-68
2021/11/13 12:44:15;;;;;;;3.63;1.95;;;17.70;62.90;;;;;;5074997;28;20190;-68
2021/11/13 12:46:43;;;;;;;2.03;1.85;;;17.70;62.90;;;;;;5074789;28;20305;-69
2021/11/13 12:49:24;;;;;;;3.92;1.90;;;17.80;62.90;;;;;;5074413;28;20258;-67